createdAt,value
2023-01-17T00:02:22.229Z,95801.42
2023-01-17T00:05:08.936Z,95802.11
2023-01-17T00:07:55.681Z,95805.13
2023-01-17T00:10:26.139Z,95801.48
2023-01-17T00:12:59.388Z,95794.59
2023-01-17T00:15:29.144Z,95792.06
2023-01-17T00:17:58.596Z,95786.06
2023-01-17T00:20:50.384Z,95777.23
2023-01-17T00:23:41.114Z,95771.58
2023-01-17T00:26:27.723Z,95770.41
2023-01-17T00:28:55.615Z,95765.45
2023-01-17T00:31:23.646Z,95771.29
2023-01-17T00:33:51.705Z,95778.89
2023-01-17T00:36:19.641Z,95779.21
2023-01-17T00:38:47.688Z,95783.42
2023-01-17T00:41:15.924Z,95778.97
2023-01-17T00:44:02.370Z,95772.00
2023-01-17T00:46:49.019Z,95762.65
2023-01-17T00:49:35.865Z,95754.98
2023-01-17T00:52:22.469Z,95755.21
2023-01-17T00:55:09.106Z,95750.65
2023-01-17T00:57:55.862Z,95745.27
2023-01-17T01:00:42.469Z,95743.04
2023-01-17T01:03:30.934Z,95740.86
2023-01-17T01:06:17.844Z,95738.55
2023-01-17T01:09:04.682Z,95735.15
2023-01-17T01:11:51.488Z,95734.67
2023-01-17T01:14:38.211Z,95734.08
2023-01-17T01:17:24.907Z,95733.10
2023-01-17T01:20:11.793Z,95731.78
2023-01-17T01:22:58.811Z,95725.43
2023-01-17T01:25:45.264Z,95722.32
2023-01-17T01:28:33.913Z,95720.66
2023-01-17T01:31:22.121Z,95719.59
2023-01-17T01:33:54.040Z,95718.89
2023-01-17T01:36:22.176Z,95719.01
2023-01-17T01:38:50.549Z,95712.84
2023-01-17T01:41:19.025Z,95712.85
2023-01-17T01:43:53.129Z,95715.89
2023-01-17T01:46:39.961Z,95715.92
2023-01-17T01:49:21.936Z,95714.55
2023-01-17T01:51:54.831Z,95717.40
2023-01-17T01:54:28.522Z,95710.25
2023-01-17T01:57:01.590Z,95712.47
2023-01-17T01:59:32.594Z,95711.71
2023-01-17T02:02:01.682Z,95718.08
2023-01-17T02:04:29.849Z,95730.60
2023-01-17T02:07:08.379Z,95728.96
2023-01-17T02:09:37.143Z,95733.23
2023-01-17T02:12:07.498Z,95746.20
2023-01-17T02:14:35.467Z,95737.32
2023-01-17T02:17:13.183Z,95724.83
2023-01-17T02:20:15.586Z,95723.85
2023-01-17T02:22:49.534Z,95723.34
2023-01-17T02:26:01.976Z,95720.04
2023-01-17T02:29:10.924Z,95717.27
2023-01-17T02:31:47.829Z,95715.94
2023-01-17T02:34:33.835Z,95713.69
2023-01-17T02:37:11.848Z,95705.21
2023-01-17T02:39:48.985Z,95700.75
2023-01-17T02:42:20.082Z,95709.55
2023-01-17T02:44:48.289Z,95711.04
2023-01-17T02:47:21.026Z,95715.02
2023-01-17T02:49:49.201Z,95707.84
2023-01-17T02:52:45.186Z,95705.52
2023-01-17T02:55:23.342Z,95709.80
2023-01-17T02:58:09.743Z,95709.63
2023-01-17T03:00:46.819Z,95705.96
2023-01-17T03:03:35.657Z,95698.46
2023-01-17T03:06:18.397Z,95694.23
2023-01-17T03:08:48.811Z,95696.39
2023-01-17T03:11:17.181Z,95694.54
2023-01-17T03:13:45.220Z,95690.42
2023-01-17T03:16:19.847Z,95692.10
2023-01-17T03:18:49.444Z,95687.34
2023-01-17T03:21:17.925Z,95680.70
2023-01-17T03:23:46.050Z,95677.40
2023-01-17T03:26:14.440Z,95683.09
2023-01-17T03:28:42.640Z,95683.15
2023-01-17T03:31:15.474Z,95678.13
2023-01-17T03:33:43.730Z,95674.34
2023-01-17T03:36:12.450Z,95671.00
2023-01-17T03:38:40.957Z,95667.94
2023-01-17T03:41:09.118Z,95665.60
2023-01-17T03:43:37.366Z,95661.27
2023-01-17T03:46:08.164Z,95659.37
2023-01-17T03:48:36.269Z,95655.16
2023-01-17T03:51:04.518Z,95648.45
2023-01-17T03:53:32.748Z,95641.86
2023-01-17T03:56:01.109Z,95643.88
2023-01-17T03:58:29.067Z,95639.95
2023-01-17T04:00:57.188Z,95649.04
2023-01-17T04:03:25.416Z,95646.32
2023-01-17T04:05:53.361Z,95647.73
2023-01-17T04:08:21.441Z,95649.41
2023-01-17T04:10:49.551Z,95645.49
2023-01-17T04:13:17.645Z,95649.84
2023-01-17T04:15:48.837Z,95644.94
2023-01-17T04:18:18.537Z,95641.57
2023-01-17T04:20:46.823Z,95640.69
2023-01-17T04:23:14.777Z,95640.55
2023-01-17T04:25:43.132Z,95639.66
2023-01-17T04:28:11.341Z,95643.08
2023-01-17T04:30:39.739Z,95644.30
2023-01-17T04:33:07.890Z,95640.61
2023-01-17T04:35:36.251Z,95639.30
2023-01-17T04:38:04.576Z,95633.12
2023-01-17T04:40:32.561Z,95630.97
2023-01-17T04:43:00.533Z,95629.11
2023-01-17T04:45:28.596Z,95637.67
2023-01-17T04:47:56.859Z,95641.98
2023-01-17T04:50:25.080Z,95649.11
2023-01-17T04:52:53.422Z,95653.77
2023-01-17T04:55:21.528Z,95651.83
2023-01-17T04:57:49.650Z,95650.61
2023-01-17T05:00:19.067Z,95644.28
2023-01-17T05:02:47.186Z,95642.77
2023-01-17T05:05:15.492Z,95638.73
2023-01-17T05:07:43.782Z,95638.36
2023-01-17T05:10:12.107Z,95637.05
2023-01-17T05:12:40.887Z,95637.19
2023-01-17T05:15:09.504Z,95639.61
2023-01-17T05:17:37.613Z,95638.11
2023-01-17T05:20:06.470Z,95631.67
2023-01-17T05:22:34.637Z,95630.00
2023-01-17T05:25:02.902Z,95626.63
2023-01-17T05:27:31.057Z,95629.38
2023-01-17T05:29:59.293Z,95636.19
2023-01-17T05:32:27.449Z,95636.52
2023-01-17T05:34:55.777Z,95639.16
2023-01-17T05:37:23.898Z,95631.76
2023-01-17T05:39:52.260Z,95641.23
2023-01-17T05:42:20.348Z,95641.65
2023-01-17T05:44:48.628Z,95633.58
2023-01-17T05:47:17.034Z,95629.17
2023-01-17T05:49:45.993Z,95635.20
2023-01-17T05:52:14.199Z,95633.31
2023-01-17T05:54:42.411Z,95619.61
2023-01-17T05:57:10.589Z,95620.34
2023-01-17T05:59:38.786Z,95629.28
2023-01-17T06:02:07.291Z,95629.98
2023-01-17T06:04:35.413Z,95636.16
2023-01-17T06:07:03.665Z,95648.69
2023-01-17T06:09:32.170Z,95652.58
2023-01-17T06:12:00.476Z,95650.35
2023-01-17T06:14:28.633Z,95652.38
2023-01-17T06:16:56.830Z,95656.70
2023-01-17T06:19:24.886Z,95656.55
2023-01-17T06:21:53.357Z,95658.48
2023-01-17T06:24:21.809Z,95654.59
2023-01-17T06:26:50.250Z,95655.09
2023-01-17T06:29:18.485Z,95647.30
2023-01-17T06:31:46.696Z,95652.29
2023-01-17T06:34:15.067Z,95665.26
2023-01-17T06:36:43.155Z,95667.41
2023-01-17T06:39:14.794Z,95660.73
2023-01-17T06:41:43.917Z,95663.38
2023-01-17T06:44:12.615Z,95667.14
2023-01-17T06:46:41.321Z,95671.61
2023-01-17T06:49:09.459Z,95675.16
2023-01-17T06:51:37.785Z,95679.79
2023-01-17T06:54:06.408Z,95682.87
2023-01-17T06:56:34.842Z,95698.30
2023-01-17T06:59:03.998Z,95711.75
2023-01-17T07:01:32.728Z,95727.25
2023-01-17T07:04:01.782Z,95727.64
2023-01-17T07:06:30.312Z,95729.59
2023-01-17T07:08:59.317Z,95730.27
2023-01-17T07:11:27.894Z,95737.77
2023-01-17T07:13:56.255Z,95738.05
2023-01-17T07:16:24.594Z,95731.38
2023-01-17T07:18:53.456Z,95729.98
2023-01-17T07:21:23.201Z,95727.10
2023-01-17T07:23:51.668Z,95731.83
2023-01-17T07:26:19.938Z,95734.63
2023-01-17T07:28:48.480Z,95728.09
2023-01-17T07:31:16.799Z,95715.95
2023-01-17T07:33:45.023Z,95709.48
2023-01-17T07:36:13.453Z,95703.38
2023-01-17T07:38:44.040Z,95709.44
2023-01-17T07:41:12.435Z,95716.60
2023-01-17T07:43:40.880Z,95727.19
2023-01-17T07:46:09.592Z,95724.50
2023-01-17T07:48:37.984Z,95726.23
2023-01-17T07:51:06.243Z,95722.79
2023-01-17T07:53:35.095Z,95719.63
2023-01-17T07:56:06.046Z,95712.94
2023-01-17T07:58:35.374Z,95706.23
2023-01-17T08:01:12.557Z,95703.50
2023-01-17T08:03:41.281Z,95702.90
2023-01-17T08:06:22.275Z,95694.56
2023-01-17T08:08:51.675Z,95703.70
2023-01-17T08:11:19.981Z,95706.69
2023-01-17T08:13:48.931Z,95721.98
2023-01-17T08:16:17.196Z,95724.69
2023-01-17T08:18:45.662Z,95729.97
2023-01-17T08:21:17.795Z,95730.52
2023-01-17T08:23:51.780Z,95727.92
2023-01-17T08:26:22.551Z,95720.55
2023-01-17T08:29:01.462Z,95715.52
2023-01-17T08:31:32.057Z,95710.11
2023-01-17T08:34:01.058Z,95704.45
2023-01-17T08:36:31.505Z,95703.10
2023-01-17T08:39:00.109Z,95700.36
2023-01-17T08:41:28.601Z,95696.55
2023-01-17T08:43:57.792Z,95696.50
2023-01-17T08:46:26.036Z,95704.61
2023-01-17T08:48:56.186Z,95717.23
2023-01-17T08:51:26.609Z,95724.16
2023-01-17T08:53:57.251Z,95718.80
2023-01-17T08:56:26.392Z,95717.64
2023-01-17T08:58:55.551Z,95718.23
2023-01-17T09:01:24.627Z,95721.27
2023-01-17T09:03:53.487Z,95714.77
2023-01-17T09:06:22.245Z,95716.50
2023-01-17T09:08:54.212Z,95711.84
2023-01-17T09:11:22.682Z,95703.44
2023-01-17T09:13:52.279Z,95696.04
2023-01-17T09:16:21.431Z,95697.77
2023-01-17T09:18:53.772Z,95703.48
2023-01-17T09:21:23.657Z,95704.98
2023-01-17T09:23:55.803Z,95717.17
2023-01-17T09:26:28.848Z,95721.23
2023-01-17T09:28:59.076Z,95721.45
2023-01-17T09:31:28.545Z,95725.71
2023-01-17T09:33:58.578Z,95739.67
2023-01-17T09:36:29.383Z,95743.30
2023-01-17T09:38:59.164Z,95746.48
2023-01-17T09:42:03.719Z,95754.77
2023-01-17T09:44:42.959Z,95759.14
2023-01-17T09:47:27.277Z,95763.06
2023-01-17T09:50:00.543Z,95778.48
2023-01-17T09:52:31.142Z,95780.12
2023-01-17T09:55:00.253Z,95783.09
2023-01-17T09:57:39.204Z,95790.55
2023-01-17T10:00:27.536Z,95775.61
2023-01-17T10:03:30.579Z,95756.25
2023-01-17T10:06:02.039Z,95753.60
2023-01-17T10:09:00.229Z,95748.92
2023-01-17T10:11:49.323Z,95761.50
2023-01-17T10:14:42.552Z,95770.92
2023-01-17T10:17:40.063Z,95757.84
2023-01-17T10:20:18.106Z,95749.70
2023-01-17T10:23:25.383Z,95744.41
2023-01-17T10:26:04.503Z,95736.62
2023-01-17T10:28:49.859Z,95740.98
2023-01-17T10:31:27.202Z,95742.96
2023-01-17T10:34:15.623Z,95740.40
2023-01-17T10:37:00.489Z,95746.45
2023-01-17T10:39:31.052Z,95742.94
2023-01-17T10:42:12.710Z,95737.50
2023-01-17T10:45:04.458Z,95740.27
2023-01-17T10:47:37.620Z,95741.54
2023-01-17T10:50:06.715Z,95731.36
2023-01-17T10:52:45.628Z,95720.04
2023-01-17T10:55:28.364Z,95709.85
2023-01-17T10:57:58.389Z,95711.52
2023-01-17T11:00:44.287Z,95703.81
2023-01-17T11:03:18.367Z,95711.27
2023-01-17T11:06:15.519Z,95709.77
2023-01-17T11:09:12.174Z,95708.77
2023-01-17T11:11:59.243Z,95697.57
2023-01-17T11:14:29.541Z,95690.88
2023-01-17T11:17:00.358Z,95698.55
2023-01-17T11:19:35.590Z,95708.56
2023-01-17T11:22:07.909Z,95707.61
2023-01-17T11:24:42.081Z,95706.10
2023-01-17T11:27:25.308Z,95700.11
2023-01-17T11:30:18.872Z,95698.73
2023-01-17T11:32:57.739Z,95704.60
2023-01-17T11:35:31.571Z,95712.54
2023-01-17T11:38:03.574Z,95710.44
2023-01-17T11:40:35.838Z,95722.63
2023-01-17T11:43:16.388Z,95725.86
2023-01-17T11:45:47.237Z,95724.94
2023-01-17T11:48:17.674Z,95727.06
2023-01-17T11:50:58.473Z,95726.63
2023-01-17T11:53:41.606Z,95726.85
2023-01-17T11:56:12.119Z,95734.66
2023-01-17T11:58:43.411Z,95740.77
2023-01-17T12:01:30.931Z,95744.71
2023-01-17T12:03:59.828Z,95748.53
2023-01-17T12:06:58.088Z,95744.39
2023-01-17T12:09:31.977Z,95734.92
2023-01-17T12:12:33.174Z,95730.59
2023-01-17T12:15:07.752Z,95721.41
2023-01-17T12:18:00.974Z,95721.00
2023-01-17T12:21:06.307Z,95726.48
2023-01-17T12:23:47.830Z,95730.27
2023-01-17T12:26:39.394Z,95731.80
2023-01-17T12:29:27.099Z,95728.30
2023-01-17T12:32:37.472Z,95723.02
2023-01-17T12:35:21.067Z,95718.98
2023-01-17T12:38:06.683Z,95712.91
2023-01-17T12:40:46.504Z,95709.66
2023-01-17T12:43:35.553Z,95709.33
2023-01-17T12:46:24.476Z,95707.64
2023-01-17T12:49:03.015Z,95708.05
2023-01-17T12:51:37.881Z,95713.83
2023-01-17T12:54:19.636Z,95722.83
2023-01-17T12:56:54.508Z,95723.95
2023-01-17T13:00:00.181Z,95723.55
2023-01-17T13:02:36.547Z,95720.91
2023-01-17T13:05:23.905Z,95721.76
2023-01-17T13:08:05.560Z,95724.20
2023-01-17T13:10:35.630Z,95722.42
2023-01-17T13:13:26.216Z,95731.57
2023-01-17T13:15:56.375Z,95740.30
2023-01-17T13:18:29.992Z,95753.66
2023-01-17T13:21:34.107Z,95765.45
2023-01-17T13:24:21.933Z,95776.80
2023-01-17T13:27:17.618Z,95781.25
2023-01-17T13:30:18.040Z,95780.51
2023-01-17T13:33:11.197Z,95776.44
2023-01-17T13:35:51.651Z,95777.64
2023-01-17T13:38:23.633Z,95771.98
2023-01-17T13:41:01.675Z,95774.35
2023-01-17T13:44:02.137Z,95778.31
2023-01-17T13:46:32.547Z,95770.57
2023-01-17T13:49:24.336Z,95760.08
2023-01-17T13:52:19.411Z,95749.36
2023-01-17T13:54:55.513Z,95743.87
2023-01-17T13:57:29.614Z,95741.79
2023-01-17T14:00:23.738Z,95748.61
2023-01-17T14:02:55.389Z,95751.64
2023-01-17T14:05:30.900Z,95753.40
2023-01-17T14:08:04.864Z,95755.16
2023-01-17T14:10:34.628Z,95758.42
2023-01-17T14:13:05.664Z,95757.23
2023-01-17T14:15:47.349Z,95759.06
2023-01-17T14:18:41.144Z,95770.18
2023-01-17T14:21:35.826Z,95781.75
2023-01-17T14:24:11.259Z,95785.14
2023-01-17T14:26:42.234Z,95788.85
2023-01-17T14:29:44.170Z,95789.52
2023-01-17T14:32:21.833Z,95797.89
2023-01-17T14:34:53.502Z,95802.11
2023-01-17T14:37:40.822Z,95803.42
2023-01-17T14:40:26.761Z,95807.89
2023-01-17T14:43:05.185Z,95812.58
2023-01-17T14:45:36.384Z,95809.78
2023-01-17T14:48:07.702Z,95807.17
2023-01-17T14:50:41.221Z,95809.63
2023-01-17T14:53:13.495Z,95812.55
2023-01-17T14:55:48.284Z,95807.91
2023-01-17T14:58:23.444Z,95815.73
2023-01-17T15:01:00.413Z,95816.70
2023-01-17T15:03:34.554Z,95817.68
2023-01-17T15:06:32.672Z,95815.57
2023-01-17T15:12:39.146Z,95812.98
2023-01-17T15:15:26.037Z,95807.98
2023-01-17T15:18:27.196Z,95803.24
2023-01-17T15:21:03.162Z,95803.44
2023-01-17T15:23:36.651Z,95805.65
2023-01-17T15:26:08.301Z,95815.63
2023-01-17T15:29:01.850Z,95820.88
2023-01-17T15:31:59.553Z,95816.54
2023-01-17T15:35:13.397Z,95819.31
2023-01-17T15:37:54.625Z,95833.27
2023-01-17T15:40:25.629Z,95833.30
2023-01-17T15:43:01.149Z,95833.55
2023-01-17T15:45:34.210Z,95823.71
2023-01-17T15:48:35.844Z,95814.92
2023-01-17T15:51:04.736Z,95819.67
2023-01-17T15:53:45.452Z,95812.08
2023-01-17T15:56:32.563Z,95798.60
2023-01-17T15:59:21.800Z,95796.05
2023-01-17T16:01:56.142Z,95810.48
2023-01-17T16:04:37.412Z,95825.02
2023-01-17T16:07:20.671Z,95834.30
2023-01-17T16:09:51.364Z,95830.65
2023-01-17T16:12:21.832Z,95823.27
2023-01-17T16:15:10.904Z,95830.05
2023-01-17T16:17:48.584Z,95830.30
2023-01-17T16:20:20.497Z,95822.05
2023-01-17T16:22:49.709Z,95812.97
2023-01-17T16:25:23.784Z,95810.17
2023-01-17T16:27:52.949Z,95816.98
2023-01-17T16:30:23.334Z,95825.80
2023-01-17T16:32:52.503Z,95830.48
2023-01-17T16:35:28.114Z,95822.13
2023-01-17T16:38:06.794Z,95817.98
2023-01-17T16:40:40.890Z,95810.86
2023-01-17T16:43:11.693Z,95806.83
2023-01-17T16:45:46.961Z,95805.16
2023-01-17T16:48:17.715Z,95797.65
2023-01-17T16:50:52.341Z,95798.48
2023-01-17T16:53:25.032Z,95793.66
2023-01-17T16:56:00.266Z,95785.08
2023-01-17T16:58:28.756Z,95781.66
2023-01-17T17:00:58.090Z,95786.09
2023-01-17T17:03:27.016Z,95790.38
2023-01-17T17:05:58.167Z,95785.48
2023-01-17T17:08:29.739Z,95777.07
2023-01-17T17:11:17.056Z,95769.43
2023-01-17T17:13:47.622Z,95767.04
2023-01-17T17:16:26.610Z,95761.70
2023-01-17T17:19:00.883Z,95747.16
2023-01-17T17:21:31.155Z,95737.70
2023-01-17T17:24:01.192Z,95737.91
2023-01-17T17:26:37.168Z,95748.55
2023-01-17T17:29:07.717Z,95749.74
2023-01-17T17:31:38.424Z,95746.73
2023-01-17T17:34:07.939Z,95742.98
2023-01-17T17:36:37.277Z,95744.14
2023-01-17T17:39:09.328Z,95741.56
2023-01-17T17:41:41.157Z,95733.28
2023-01-17T17:44:10.151Z,95735.64
2023-01-17T17:46:38.423Z,95734.46
2023-01-17T17:49:06.985Z,95725.92
2023-01-17T17:51:37.731Z,95722.84
2023-01-17T17:54:12.320Z,95717.56
2023-01-17T17:56:46.748Z,95708.31
2023-01-17T17:59:20.484Z,95708.88
2023-01-17T18:01:49.718Z,95703.28
2023-01-17T18:04:19.409Z,95703.79
2023-01-17T18:06:48.388Z,95708.86
2023-01-17T18:09:17.081Z,95713.12
2023-01-17T18:11:45.355Z,95714.65
2023-01-17T18:14:15.467Z,95714.09
2023-01-17T18:16:45.013Z,95709.19
2023-01-17T18:19:19.711Z,95705.52
2023-01-17T18:21:50.617Z,95696.69
2023-01-17T18:24:21.659Z,95690.80
2023-01-17T18:26:52.658Z,95694.21
2023-01-17T18:29:22.583Z,95690.49
2023-01-17T18:31:51.930Z,95682.44
2023-01-17T18:34:24.378Z,95679.46
2023-01-17T18:36:52.966Z,95673.92
2023-01-17T18:39:26.521Z,95670.92
2023-01-17T18:41:55.263Z,95657.77
2023-01-17T18:44:24.049Z,95644.67
2023-01-17T18:46:58.299Z,95641.82
2023-01-17T18:49:27.561Z,95629.24
2023-01-17T18:51:56.111Z,95627.89
2023-01-17T18:54:24.318Z,95627.19
2023-01-17T18:56:55.789Z,95619.66
2023-01-17T18:59:24.193Z,95616.01
2023-01-17T19:01:52.885Z,95609.30
2023-01-17T19:04:21.761Z,95605.16
2023-01-17T19:06:50.066Z,95606.41
2023-01-17T19:09:18.391Z,95605.09
2023-01-17T19:11:48.175Z,95605.16
2023-01-17T19:14:16.666Z,95595.23
2023-01-17T19:16:45.243Z,95595.39
2023-01-17T19:19:15.698Z,95598.44
2023-01-17T19:21:44.133Z,95595.20
2023-01-17T19:24:13.536Z,95587.98
2023-01-17T19:26:43.325Z,95578.13
2023-01-17T19:29:12.354Z,95573.69
2023-01-17T19:31:43.359Z,95573.07
2023-01-17T19:34:14.333Z,95574.06
2023-01-17T19:36:42.898Z,95574.08
2023-01-17T19:39:11.526Z,95571.85
2023-01-17T19:41:45.656Z,95571.63
2023-01-17T19:44:14.731Z,95574.16
2023-01-17T19:46:43.995Z,95576.25
2023-01-17T19:49:13.437Z,95572.96
2023-01-17T19:51:42.356Z,95572.71
2023-01-17T19:54:10.894Z,95571.94
2023-01-17T19:56:39.441Z,95562.68
2023-01-17T19:59:08.085Z,95562.84
2023-01-17T20:01:36.623Z,95557.52
2023-01-17T20:04:05.566Z,95554.73
2023-01-17T20:06:36.387Z,95556.00
2023-01-17T20:09:06.212Z,95555.01
2023-01-17T20:11:34.752Z,95555.48
2023-01-17T20:14:05.699Z,95559.23
2023-01-17T20:16:37.924Z,95556.73
2023-01-17T20:19:06.565Z,95549.37
2023-01-17T20:21:35.563Z,95548.38
2023-01-17T20:24:04.630Z,95544.06
2023-01-17T20:26:35.413Z,95545.31
2023-01-17T20:29:07.540Z,95543.98
2023-01-17T20:31:38.532Z,95545.06
2023-01-17T20:34:08.406Z,95541.84
2023-01-17T20:36:38.239Z,95537.13
2023-01-17T20:39:08.174Z,95534.11
2023-01-17T20:41:38.262Z,95534.83
2023-01-17T20:44:09.548Z,95530.64
2023-01-17T20:46:41.401Z,95529.91
2023-01-17T20:49:16.296Z,95522.36
2023-01-17T20:51:45.788Z,95512.75
2023-01-17T20:54:16.624Z,95508.15
2023-01-17T20:56:47.567Z,95505.98
2023-01-17T20:59:18.653Z,95500.56
2023-01-17T21:01:47.667Z,95500.72
2023-01-17T21:04:16.912Z,95490.64
2023-01-17T21:06:45.079Z,95484.48
2023-01-17T21:09:15.481Z,95465.89
2023-01-17T21:11:43.867Z,95470.04
2023-01-17T21:14:11.937Z,95475.27
2023-01-17T21:16:40.138Z,95474.62
2023-01-17T21:19:12.270Z,95476.65
2023-01-17T21:21:40.899Z,95459.95
2023-01-17T21:24:09.209Z,95461.61
2023-01-17T21:26:40.440Z,95464.23
2023-01-17T21:29:09.155Z,95458.84
2023-01-17T21:31:39.875Z,95464.59
2023-01-17T21:34:10.597Z,95464.40
2023-01-17T21:36:40.672Z,95458.67
2023-01-17T21:39:15.845Z,95449.09
2023-01-17T21:41:46.395Z,95444.97
2023-01-17T21:44:23.191Z,95443.67
2023-01-17T21:46:55.136Z,95447.79
2023-01-17T21:49:24.860Z,95451.16
2023-01-17T21:51:53.237Z,95445.71
2023-01-17T21:54:45.205Z,95444.95
2023-01-17T21:57:45.268Z,95440.39
2023-01-17T22:00:14.742Z,95434.98
2023-01-17T22:02:47.946Z,95440.30
2023-01-17T22:05:18.760Z,95439.33
2023-01-17T22:08:05.612Z,95432.96
2023-01-17T22:10:44.782Z,95434.84
2023-01-17T22:13:14.627Z,95427.09
2023-01-17T22:15:43.254Z,95411.73
2023-01-17T22:18:13.206Z,95414.52
2023-01-17T22:20:42.561Z,95414.96
2023-01-17T22:23:11.729Z,95418.80
2023-01-17T22:25:40.391Z,95423.11
2023-01-17T22:28:08.966Z,95421.25
2023-01-17T22:30:37.478Z,95422.95
2023-01-17T22:33:05.993Z,95418.57
2023-01-17T22:35:34.267Z,95424.27
2023-01-17T22:38:02.379Z,95425.04
2023-01-17T22:40:32.809Z,95425.80
2023-01-17T22:43:00.994Z,95421.85
2023-01-17T22:45:29.169Z,95419.86
2023-01-17T22:47:57.329Z,95424.21
2023-01-17T22:50:26.501Z,95419.61
2023-01-17T22:52:55.233Z,95413.23
2023-01-17T22:55:25.342Z,95408.56
2023-01-17T22:57:54.023Z,95415.34
2023-01-17T23:00:22.398Z,95418.15
2023-01-17T23:02:50.637Z,95420.09
2023-01-17T23:05:19.021Z,95421.42
2023-01-17T23:07:50.090Z,95422.17
2023-01-17T23:10:38.304Z,95421.84
2023-01-17T23:13:10.609Z,95427.02
2023-01-17T23:15:57.313Z,95428.17
2023-01-17T23:18:44.193Z,95422.73
2023-01-17T23:21:12.232Z,95414.34
2023-01-17T23:23:40.408Z,95413.80
2023-01-17T23:26:08.586Z,95409.29
2023-01-17T23:28:37.045Z,95403.05
2023-01-17T23:31:06.612Z,95399.77
2023-01-17T23:33:35.280Z,95398.08
2023-01-17T23:36:03.546Z,95398.66
2023-01-17T23:38:34.194Z,95399.12
2023-01-17T23:41:29.890Z,95405.17
2023-01-17T23:43:58.907Z,95406.64
2023-01-17T23:46:27.328Z,95411.14
2023-01-17T23:48:55.458Z,95406.23
2023-01-17T23:51:23.786Z,95403.23
2023-01-17T23:53:57.517Z,95403.90
2023-01-17T23:56:25.749Z,95399.83
2023-01-17T23:58:54.160Z,95397.43
